sensor_id;sensor_type;location;lat;lon;timestamp;temperature;humidity
3778;DHT22;1904;50.076;8.660;2022-09-09T00:02:19;16.40;1.00
3778;DHT22;1904;50.076;8.660;2022-09-09T00:04:59;16.40;1.00
3778;DHT22;1904;50.076;8.660;2022-09-09T00:07:41;16.40;1.00
3778;DHT22;1904;50.076;8.660;2022-09-09T00:13:39;16.50;1.00
3778;DHT22;1904;50.076;8.660;2022-09-09T00:19:24;16.40;1.00
3778;DHT22;1904;50.076;8.660;2022-09-09T00:22:15;16.40;1.00
3778;DHT22;1904;50.076;8.660;2022-09-09T00:24:45;16.30;1.00
3778;DHT22;1904;50.076;8.660;2022-09-09T00:30:29;16.30;1.00
3778;DHT22;1904;50.076;8.660;2022-09-09T00:39:46;16.10;1.00
3778;DHT22;1904;50.076;8.660;2022-09-09T01:03:56;15.50;1.00
3778;DHT22;1904;50.076;8.660;2022-09-09T01:06:35;15.40;1.00
3778;DHT22;1904;50.076;8.660;2022-09-09T01:09:26;15.30;1.00
3778;DHT22;1904;50.076;8.660;2022-09-09T01:12:12;15.30;1.00
3778;DHT22;1904;50.076;8.660;2022-09-09T01:15:04;15.20;1.00
3778;DHT22;1904;50.076;8.660;2022-09-09T01:29:48;14.80;1.00
3778;DHT22;1904;50.076;8.660;2022-09-09T01:46:07;14.60;1.00
3778;DHT22;1904;50.076;8.660;2022-09-09T01:48:43;14.50;1.00
3778;DHT22;1904;50.076;8.660;2022-09-09T01:51:13;14.40;1.00
3778;DHT22;1904;50.076;8.660;2022-09-09T01:53:41;14.40;1.00
3778;DHT22;1904;50.076;8.660;2022-09-09T01:56:33;14.40;1.00
3778;DHT22;1904;50.076;8.660;2022-09-09T02:02:11;14.30;1.00
3778;DHT22;1904;50.076;8.660;2022-09-09T02:04:50;14.30;1.00
3778;DHT22;1904;50.076;8.660;2022-09-09T02:07:46;14.30;1.00
3778;DHT22;1904;50.076;8.660;2022-09-09T02:10:17;14.20;1.00
3778;DHT22;1904;50.076;8.660;2022-09-09T02:12:55;14.20;1.00
3778;DHT22;1904;50.076;8.660;2022-09-09T02:18:15;14.30;1.00
3778;DHT22;1904;50.076;8.660;2022-09-09T02:20:44;14.30;1.00
3778;DHT22;1904;50.076;8.660;2022-09-09T02:23:31;14.30;1.00
3778;DHT22;1904;50.076;8.660;2022-09-09T02:26:25;14.30;1.00
3778;DHT22;1904;50.076;8.660;2022-09-09T02:28:57;14.30;1.00
3778;DHT22;1904;50.076;8.660;2022-09-09T02:31:25;14.30;1.00
3778;DHT22;1904;50.076;8.660;2022-09-09T02:37:15;14.50;1.00
3778;DHT22;1904;50.076;8.660;2022-09-09T02:50:05;14.70;1.00
3778;DHT22;1904;50.076;8.660;2022-09-09T02:56:09;14.90;1.00
3778;DHT22;1904;50.076;8.660;2022-09-09T02:59:13;14.90;1.00
3778;DHT22;1904;50.076;8.660;2022-09-09T03:05:31;15.00;1.00
3778;DHT22;1904;50.076;8.660;2022-09-09T03:14:37;15.20;1.00
3778;DHT22;1904;50.076;8.660;2022-09-09T03:17:07;15.20;1.00
3778;DHT22;1904;50.076;8.660;2022-09-09T03:19:37;15.20;1.00
3778;DHT22;1904;50.076;8.660;2022-09-09T03:22:03;15.20;1.00
3778;DHT22;1904;50.076;8.660;2022-09-09T03:24:30;15.20;1.00
3778;DHT22;1904;50.076;8.660;2022-09-09T03:27:07;15.20;1.00
3778;DHT22;1904;50.076;8.660;2022-09-09T03:32:43;15.10;1.00
3778;DHT22;1904;50.076;8.660;2022-09-09T03:35:19;15.10;1.00
3778;DHT22;1904;50.076;8.660;2022-09-09T03:37:49;15.20;1.00
3778;DHT22;1904;50.076;8.660;2022-09-09T03:40:31;15.20;1.00
3778;DHT22;1904;50.076;8.660;2022-09-09T03:43:01;15.20;1.00
3778;DHT22;1904;50.076;8.660;2022-09-09T03:45:55;15.20;1.00
3778;DHT22;1904;50.076;8.660;2022-09-09T03:48:24;15.20;1.00
3778;DHT22;1904;50.076;8.660;2022-09-09T03:50:56;15.20;1.00
3778;DHT22;1904;50.076;8.660;2022-09-09T03:53:24;15.20;1.00
3778;DHT22;1904;50.076;8.660;2022-09-09T03:55:56;15.20;1.00
3778;DHT22;1904;50.076;8.660;2022-09-09T03:58:25;15.20;1.00
3778;DHT22;1904;50.076;8.660;2022-09-09T04:06:35;15.30;1.00
3778;DHT22;1904;50.076;8.660;2022-09-09T04:09:19;15.30;1.00
3778;DHT22;1904;50.076;8.660;2022-09-09T04:11:49;15.30;1.00
3778;DHT22;1904;50.076;8.660;2022-09-09T04:14:31;15.30;1.00
3778;DHT22;1904;50.076;8.660;2022-09-09T04:17:01;15.30;1.00
3778;DHT22;1904;50.076;8.660;2022-09-09T04:19:31;15.20;1.00
3778;DHT22;1904;50.076;8.660;2022-09-09T04:25:25;15.20;1.00
3778;DHT22;1904;50.076;8.660;2022-09-09T04:27:56;15.20;1.00
3778;DHT22;1904;50.076;8.660;2022-09-09T04:30:27;15.20;1.00
3778;DHT22;1904;50.076;8.660;2022-09-09T04:32:53;15.10;1.00
3778;DHT22;1904;50.076;8.660;2022-09-09T04:35:25;15.20;1.00
3778;DHT22;1904;50.076;8.660;2022-09-09T04:38:07;15.20;1.00
3778;DHT22;1904;50.076;8.660;2022-09-09T04:40:37;15.20;1.00
3778;DHT22;1904;50.076;8.660;2022-09-09T04:43:14;15.30;1.00
3778;DHT22;1904;50.076;8.660;2022-09-09T04:45:50;15.30;1.00
3778;DHT22;1904;50.076;8.660;2022-09-09T04:48:25;15.30;1.00
3778;DHT22;1904;50.076;8.660;2022-09-09T04:51:11;15.40;1.00
3778;DHT22;1904;50.076;8.660;2022-09-09T04:57:19;15.40;1.00
3778;DHT22;1904;50.076;8.660;2022-09-09T05:03:04;15.40;1.00
3778;DHT22;1904;50.076;8.660;2022-09-09T05:05:43;15.40;1.00
3778;DHT22;1904;50.076;8.660;2022-09-09T05:08:13;15.40;1.00
3778;DHT22;1904;50.076;8.660;2022-09-09T05:10:39;15.50;1.00
3778;DHT22;1904;50.076;8.660;2022-09-09T05:13:07;15.50;1.00
3778;DHT22;1904;50.076;8.660;2022-09-09T05:15:52;15.50;1.00
3778;DHT22;1904;50.076;8.660;2022-09-09T05:18:20;15.50;1.00
3778;DHT22;1904;50.076;8.660;2022-09-09T05:20:59;15.50;1.00
3778;DHT22;1904;50.076;8.660;2022-09-09T05:23:26;15.60;1.00
3778;DHT22;1904;50.076;8.660;2022-09-09T05:26:20;15.60;1.00
3778;DHT22;1904;50.076;8.660;2022-09-09T05:28:46;15.60;1.00
3778;DHT22;1904;50.076;8.660;2022-09-09T05:31:15;15.60;1.00
3778;DHT22;1904;50.076;8.660;2022-09-09T05:33:55;15.80;1.00
3778;DHT22;1904;50.076;8.660;2022-09-09T05:36:22;15.90;1.00
3778;DHT22;1904;50.076;8.660;2022-09-09T05:38:50;15.90;1.00
3778;DHT22;1904;50.076;8.660;2022-09-09T05:41:16;16.00;1.00
3778;DHT22;1904;50.076;8.660;2022-09-09T05:43:44;16.10;1.00
3778;DHT22;1904;50.076;8.660;2022-09-09T05:46:19;16.20;1.00
3778;DHT22;1904;50.076;8.660;2022-09-09T05:48:46;16.30;1.00
3778;DHT22;1904;50.076;8.660;2022-09-09T05:51:24;16.40;1.00
3778;DHT22;1904;50.076;8.660;2022-09-09T05:54:08;16.50;1.00
3778;DHT22;1904;50.076;8.660;2022-09-09T05:56:37;16.70;1.00
3778;DHT22;1904;50.076;8.660;2022-09-09T05:59:07;16.80;1.00
3778;DHT22;1904;50.076;8.660;2022-09-09T06:02:08;16.90;1.00
3778;DHT22;1904;50.076;8.660;2022-09-09T06:05:07;16.90;1.00
3778;DHT22;1904;50.076;8.660;2022-09-09T06:13:38;17.20;1.00
3778;DHT22;1904;50.076;8.660;2022-09-09T06:16:31;17.20;1.00
3778;DHT22;1904;50.076;8.660;2022-09-09T06:19:19;17.10;1.00
3778;DHT22;1904;50.076;8.660;2022-09-09T06:21:45;17.20;1.00
3778;DHT22;1904;50.076;8.660;2022-09-09T06:24:13;17.20;1.00
3778;DHT22;1904;50.076;8.660;2022-09-09T06:26:43;17.20;1.00
3778;DHT22;1904;50.076;8.660;2022-09-09T06:29:11;17.30;1.00
3778;DHT22;1904;50.076;8.660;2022-09-09T06:31:38;17.30;1.00
3778;DHT22;1904;50.076;8.660;2022-09-09T06:34:08;17.30;1.00
3778;DHT22;1904;50.076;8.660;2022-09-09T06:36:37;17.40;1.00
3778;DHT22;1904;50.076;8.660;2022-09-09T06:39:04;17.50;1.00
3778;DHT22;1904;50.076;8.660;2022-09-09T06:41:37;17.80;1.00
3778;DHT22;1904;50.076;8.660;2022-09-09T06:44:04;18.00;1.00
3778;DHT22;1904;50.076;8.660;2022-09-09T06:46:32;18.10;1.00
3778;DHT22;1904;50.076;8.660;2022-09-09T06:49:01;18.20;1.00
3778;DHT22;1904;50.076;8.660;2022-09-09T06:51:30;18.50;1.00
3778;DHT22;1904;50.076;8.660;2022-09-09T06:54:19;18.60;1.00
3778;DHT22;1904;50.076;8.660;2022-09-09T06:56:50;18.80;1.00
3778;DHT22;1904;50.076;8.660;2022-09-09T06:59:15;18.90;1.00
3778;DHT22;1904;50.076;8.660;2022-09-09T07:01:55;19.00;1.00
3778;DHT22;1904;50.076;8.660;2022-09-09T07:04:22;19.10;1.00
3778;DHT22;1904;50.076;8.660;2022-09-09T07:06:48;19.20;1.00
3778;DHT22;1904;50.076;8.660;2022-09-09T07:09:20;19.30;1.00
3778;DHT22;1904;50.076;8.660;2022-09-09T07:11:48;19.40;1.00
3778;DHT22;1904;50.076;8.660;2022-09-09T07:14:15;19.50;1.00
3778;DHT22;1904;50.076;8.660;2022-09-09T07:17:01;19.50;1.00
3778;DHT22;1904;50.076;8.660;2022-09-09T07:19:37;19.50;1.00
3778;DHT22;1904;50.076;8.660;2022-09-09T07:22:07;19.50;1.00
3778;DHT22;1904;50.076;8.660;2022-09-09T07:24:37;19.30;1.00
3778;DHT22;1904;50.076;8.660;2022-09-09T07:27:07;19.30;1.00
3778;DHT22;1904;50.076;8.660;2022-09-09T07:30:07;19.30;1.00
3778;DHT22;1904;50.076;8.660;2022-09-09T07:32:37;19.20;1.00
3778;DHT22;1904;50.076;8.660;2022-09-09T07:35:19;19.20;1.00
3778;DHT22;1904;50.076;8.660;2022-09-09T07:38:07;19.30;1.00
3778;DHT22;1904;50.076;8.660;2022-09-09T07:40:37;19.40;1.00
3778;DHT22;1904;50.076;8.660;2022-09-09T07:43:08;19.40;1.00
3778;DHT22;1904;50.076;8.660;2022-09-09T07:45:38;19.50;1.00
3778;DHT22;1904;50.076;8.660;2022-09-09T07:48:08;19.60;1.00
3778;DHT22;1904;50.076;8.660;2022-09-09T07:50:37;19.80;1.00
3778;DHT22;1904;50.076;8.660;2022-09-09T07:53:07;19.90;1.00
3778;DHT22;1904;50.076;8.660;2022-09-09T07:55:37;19.90;1.00
3778;DHT22;1904;50.076;8.660;2022-09-09T07:58:07;19.80;1.00
3778;DHT22;1904;50.076;8.660;2022-09-09T08:00:37;19.90;1.00
3778;DHT22;1904;50.076;8.660;2022-09-09T08:03:07;19.80;1.00
3778;DHT22;1904;50.076;8.660;2022-09-09T08:05:37;19.90;1.00
3778;DHT22;1904;50.076;8.660;2022-09-09T08:08:07;19.90;1.00
3778;DHT22;1904;50.076;8.660;2022-09-09T08:10:37;19.80;1.00
3778;DHT22;1904;50.076;8.660;2022-09-09T08:13:09;19.80;1.00
3778;DHT22;1904;50.076;8.660;2022-09-09T08:15:37;19.90;1.00
3778;DHT22;1904;50.076;8.660;2022-09-09T08:18:04;20.00;1.00
3778;DHT22;1904;50.076;8.660;2022-09-09T08:20:31;20.10;1.00
3778;DHT22;1904;50.076;8.660;2022-09-09T08:23:25;20.30;1.00
3778;DHT22;1904;50.076;8.660;2022-09-09T08:26:12;20.50;1.00
3778;DHT22;1904;50.076;8.660;2022-09-09T08:28:39;20.70;1.00
3778;DHT22;1904;50.076;8.660;2022-09-09T08:31:16;20.90;1.00
3778;DHT22;1904;50.076;8.660;2022-09-09T08:33:49;20.90;1.00
3778;DHT22;1904;50.076;8.660;2022-09-09T08:36:18;21.00;1.00
3778;DHT22;1904;50.076;8.660;2022-09-09T08:38:47;21.10;1.00
3778;DHT22;1904;50.076;8.660;2022-09-09T08:51:03;21.30;1.00
3778;DHT22;1904;50.076;8.660;2022-09-09T08:53:42;21.20;1.00
3778;DHT22;1904;50.076;8.660;2022-09-09T08:56:24;21.10;1.00
3778;DHT22;1904;50.076;8.660;2022-09-09T08:59:03;21.20;1.00
3778;DHT22;1904;50.076;8.660;2022-09-09T09:07:31;21.40;1.00
3778;DHT22;1904;50.076;8.660;2022-09-09T09:12:50;21.60;1.00
3778;DHT22;1904;50.076;8.660;2022-09-09T09:15:31;21.50;1.00
3778;DHT22;1904;50.076;8.660;2022-09-09T09:18:10;21.70;1.00
3778;DHT22;1904;50.076;8.660;2022-09-09T09:20:54;21.90;1.00
3778;DHT22;1904;50.076;8.660;2022-09-09T09:23:49;22.00;1.00
3778;DHT22;1904;50.076;8.660;2022-09-09T09:26:33;21.80;1.00
3778;DHT22;1904;50.076;8.660;2022-09-09T09:29:14;21.70;1.00
3778;DHT22;1904;50.076;8.660;2022-09-09T09:31:56;21.60;1.00
3778;DHT22;1904;50.076;8.660;2022-09-09T09:34:51;21.30;1.00
3778;DHT22;1904;50.076;8.660;2022-09-09T09:37:29;21.20;1.00
3778;DHT22;1904;50.076;8.660;2022-09-09T09:39:56;21.20;1.00
3778;DHT22;1904;50.076;8.660;2022-09-09T09:42:22;21.20;1.00
3778;DHT22;1904;50.076;8.660;2022-09-09T09:44:48;21.00;1.00
3778;DHT22;1904;50.076;8.660;2022-09-09T09:47:21;21.00;1.00
3778;DHT22;1904;50.076;8.660;2022-09-09T09:50:02;21.10;1.00
3778;DHT22;1904;50.076;8.660;2022-09-09T09:56:08;20.80;1.00
3778;DHT22;1904;50.076;8.660;2022-09-09T10:02:13;20.60;1.00
3778;DHT22;1904;50.076;8.660;2022-09-09T10:04:39;20.70;1.00
3778;DHT22;1904;50.076;8.660;2022-09-09T10:07:25;20.70;1.00
3778;DHT22;1904;50.076;8.660;2022-09-09T10:09:57;20.70;1.00
3778;DHT22;1904;50.076;8.660;2022-09-09T10:15:15;20.80;1.00
3778;DHT22;1904;50.076;8.660;2022-09-09T10:21:22;21.20;1.00
3778;DHT22;1904;50.076;8.660;2022-09-09T10:36:26;22.90;1.00
3778;DHT22;1904;50.076;8.660;2022-09-09T10:39:04;23.30;1.00
3778;DHT22;1904;50.076;8.660;2022-09-09T10:42:12;23.00;1.00
3778;DHT22;1904;50.076;8.660;2022-09-09T10:54:05;22.50;1.00
3778;DHT22;1904;50.076;8.660;2022-09-09T10:56:35;22.10;1.00
3778;DHT22;1904;50.076;8.660;2022-09-09T10:59:15;21.90;1.00
3778;DHT22;1904;50.076;8.660;2022-09-09T11:02:18;21.70;1.00
3778;DHT22;1904;50.076;8.660;2022-09-09T11:05:12;21.70;1.00
3778;DHT22;1904;50.076;8.660;2022-09-09T11:07:44;21.90;1.00
3778;DHT22;1904;50.076;8.660;2022-09-09T11:13:18;21.90;1.00
3778;DHT22;1904;50.076;8.660;2022-09-09T11:15:49;21.90;1.00
3778;DHT22;1904;50.076;8.660;2022-09-09T11:18:21;22.10;1.00
3778;DHT22;1904;50.076;8.660;2022-09-09T11:20:51;22.30;1.00
3778;DHT22;1904;50.076;8.660;2022-09-09T11:23:38;22.50;1.00
3778;DHT22;1904;50.076;8.660;2022-09-09T11:26:40;22.40;1.00
3778;DHT22;1904;50.076;8.660;2022-09-09T11:38:12;23.00;1.00
3778;DHT22;1904;50.076;8.660;2022-09-09T11:41:07;23.30;1.00
3778;DHT22;1904;50.076;8.660;2022-09-09T11:43:54;23.70;1.00
3778;DHT22;1904;50.076;8.660;2022-09-09T11:46:37;23.90;1.00
3778;DHT22;1904;50.076;8.660;2022-09-09T11:49:30;24.00;1.00
3778;DHT22;1904;50.076;8.660;2022-09-09T11:52:39;24.20;1.00
3778;DHT22;1904;50.076;8.660;2022-09-09T11:58:16;23.70;1.00
3778;DHT22;1904;50.076;8.660;2022-09-09T12:00:50;23.30;1.00
3778;DHT22;1904;50.076;8.660;2022-09-09T12:03:44;23.00;1.00
3778;DHT22;1904;50.076;8.660;2022-09-09T12:06:17;22.70;1.00
3778;DHT22;1904;50.076;8.660;2022-09-09T12:08:50;22.70;1.00
3778;DHT22;1904;50.076;8.660;2022-09-09T12:11:27;22.70;1.00
3778;DHT22;1904;50.076;8.660;2022-09-09T12:14:01;22.40;1.00
3778;DHT22;1904;50.076;8.660;2022-09-09T12:16:36;22.50;1.00
3778;DHT22;1904;50.076;8.660;2022-09-09T12:19:24;22.70;1.00
3778;DHT22;1904;50.076;8.660;2022-09-09T12:27:14;22.60;1.00
3778;DHT22;1904;50.076;8.660;2022-09-09T12:30:08;22.80;1.00
3778;DHT22;1904;50.076;8.660;2022-09-09T12:32:35;22.80;1.00
3778;DHT22;1904;50.076;8.660;2022-09-09T12:37:44;22.40;1.00
3778;DHT22;1904;50.076;8.660;2022-09-09T12:40:32;22.40;1.00
3778;DHT22;1904;50.076;8.660;2022-09-09T12:43:28;22.20;1.00
3778;DHT22;1904;50.076;8.660;2022-09-09T12:46:00;22.20;1.00
3778;DHT22;1904;50.076;8.660;2022-09-09T12:52:14;21.30;1.00
3778;DHT22;1904;50.076;8.660;2022-09-09T12:55:02;20.60;1.00
3778;DHT22;1904;50.076;8.660;2022-09-09T12:57:34;20.50;1.00
3778;DHT22;1904;50.076;8.660;2022-09-09T13:03:24;20.50;1.00
3778;DHT22;1904;50.076;8.660;2022-09-09T13:06:13;20.50;1.00
3778;DHT22;1904;50.076;8.660;2022-09-09T13:08:42;20.60;1.00
3778;DHT22;1904;50.076;8.660;2022-09-09T13:11:31;20.70;1.00
3778;DHT22;1904;50.076;8.660;2022-09-09T13:14:28;20.80;1.00
3778;DHT22;1904;50.076;8.660;2022-09-09T13:17:26;20.90;1.00
3778;DHT22;1904;50.076;8.660;2022-09-09T13:19:54;20.90;1.00
3778;DHT22;1904;50.076;8.660;2022-09-09T13:22:35;20.90;1.00
3778;DHT22;1904;50.076;8.660;2022-09-09T13:25:25;20.30;1.00
3778;DHT22;1904;50.076;8.660;2022-09-09T13:28:26;20.20;1.00
3778;DHT22;1904;50.076;8.660;2022-09-09T13:31:00;19.90;1.00
3778;DHT22;1904;50.076;8.660;2022-09-09T13:33:32;19.70;1.00
3778;DHT22;1904;50.076;8.660;2022-09-09T13:41:43;19.30;1.00
3778;DHT22;1904;50.076;8.660;2022-09-09T13:44:30;19.50;1.00
3778;DHT22;1904;50.076;8.660;2022-09-09T13:47:30;19.70;1.00
3778;DHT22;1904;50.076;8.660;2022-09-09T13:50:28;19.90;1.00
3778;DHT22;1904;50.076;8.660;2022-09-09T13:52:57;20.00;1.00
3778;DHT22;1904;50.076;8.660;2022-09-09T13:55:38;20.20;1.00
3778;DHT22;1904;50.076;8.660;2022-09-09T14:01:25;20.50;1.00
3778;DHT22;1904;50.076;8.660;2022-09-09T14:03:53;20.50;1.00
3778;DHT22;1904;50.076;8.660;2022-09-09T14:06:37;20.60;1.00
3778;DHT22;1904;50.076;8.660;2022-09-09T14:09:15;20.70;1.00
3778;DHT22;1904;50.076;8.660;2022-09-09T14:11:44;20.80;1.00
3778;DHT22;1904;50.076;8.660;2022-09-09T14:14:37;20.80;1.00
3778;DHT22;1904;50.076;8.660;2022-09-09T14:17:19;20.80;1.00
3778;DHT22;1904;50.076;8.660;2022-09-09T14:19:56;20.60;1.00
3778;DHT22;1904;50.076;8.660;2022-09-09T14:22:26;20.40;1.00
3778;DHT22;1904;50.076;8.660;2022-09-09T14:24:57;20.50;1.00
3778;DHT22;1904;50.076;8.660;2022-09-09T14:27:23;20.40;1.00
3778;DHT22;1904;50.076;8.660;2022-09-09T14:29:56;20.60;1.00
3778;DHT22;1904;50.076;8.660;2022-09-09T14:32:26;20.70;1.00
3778;DHT22;1904;50.076;8.660;2022-09-09T14:38:14;21.10;1.00
3778;DHT22;1904;50.076;8.660;2022-09-09T14:40:45;21.10;1.00
3778;DHT22;1904;50.076;8.660;2022-09-09T14:43:38;21.10;1.00
3778;DHT22;1904;50.076;8.660;2022-09-09T14:49:38;21.40;1.00
3778;DHT22;1904;50.076;8.660;2022-09-09T14:52:25;21.50;1.00
3778;DHT22;1904;50.076;8.660;2022-09-09T14:55:02;21.80;1.00
3778;DHT22;1904;50.076;8.660;2022-09-09T14:57:32;21.90;1.00
3778;DHT22;1904;50.076;8.660;2022-09-09T15:00:03;22.10;1.00
3778;DHT22;1904;50.076;8.660;2022-09-09T15:02:38;22.10;1.00
3778;DHT22;1904;50.076;8.660;2022-09-09T15:05:08;21.80;1.00
3778;DHT22;1904;50.076;8.660;2022-09-09T15:07:38;21.90;1.00
3778;DHT22;1904;50.076;8.660;2022-09-09T15:10:04;21.90;1.00
3778;DHT22;1904;50.076;8.660;2022-09-09T15:12:30;21.90;1.00
3778;DHT22;1904;50.076;8.660;2022-09-09T15:14:56;21.90;1.00
3778;DHT22;1904;50.076;8.660;2022-09-09T15:17:26;21.80;1.00
3778;DHT22;1904;50.076;8.660;2022-09-09T15:19:52;21.90;1.00
3778;DHT22;1904;50.076;8.660;2022-09-09T15:22:26;21.90;1.00
3778;DHT22;1904;50.076;8.660;2022-09-09T15:24:55;21.80;1.00
3778;DHT22;1904;50.076;8.660;2022-09-09T15:27:21;22.30;1.00
3778;DHT22;1904;50.076;8.660;2022-09-09T15:30:02;22.70;1.00
3778;DHT22;1904;50.076;8.660;2022-09-09T15:32:28;23.00;1.00
3778;DHT22;1904;50.076;8.660;2022-09-09T15:35:08;23.30;1.00
3778;DHT22;1904;50.076;8.660;2022-09-09T15:37:38;23.50;1.00
3778;DHT22;1904;50.076;8.660;2022-09-09T15:40:08;24.10;1.00
3778;DHT22;1904;50.076;8.660;2022-09-09T15:42:37;24.90;1.00
3778;DHT22;1904;50.076;8.660;2022-09-09T15:45:08;26.20;1.00
3778;DHT22;1904;50.076;8.660;2022-09-09T15:47:55;26.90;1.00
3778;DHT22;1904;50.076;8.660;2022-09-09T15:50:26;27.90;1.00
3778;DHT22;1904;50.076;8.660;2022-09-09T15:53:19;28.50;1.00
3778;DHT22;1904;50.076;8.660;2022-09-09T15:56:02;29.40;1.00
3778;DHT22;1904;50.076;8.660;2022-09-09T15:58:30;29.50;1.00
3778;DHT22;1904;50.076;8.660;2022-09-09T16:01:06;29.00;1.00
3778;DHT22;1904;50.076;8.660;2022-09-09T16:03:44;28.10;1.00
3778;DHT22;1904;50.076;8.660;2022-09-09T16:06:16;27.40;1.00
3778;DHT22;1904;50.076;8.660;2022-09-09T16:08:43;26.90;1.00
3778;DHT22;1904;50.076;8.660;2022-09-09T16:11:14;26.30;1.00
3778;DHT22;1904;50.076;8.660;2022-09-09T16:13:42;25.70;1.00
3778;DHT22;1904;50.076;8.660;2022-09-09T16:16:10;25.20;1.00
3778;DHT22;1904;50.076;8.660;2022-09-09T16:18:52;24.70;1.00
3778;DHT22;1904;50.076;8.660;2022-09-09T16:21:21;24.10;1.00
3778;DHT22;1904;50.076;8.660;2022-09-09T16:24:03;23.60;1.00
3778;DHT22;1904;50.076;8.660;2022-09-09T16:26:40;23.30;1.00
3778;DHT22;1904;50.076;8.660;2022-09-09T16:29:15;22.80;1.00
3778;DHT22;1904;50.076;8.660;2022-09-09T16:31:46;22.50;1.00
3778;DHT22;1904;50.076;8.660;2022-09-09T16:34:26;22.10;1.00
3778;DHT22;1904;50.076;8.660;2022-09-09T16:40:14;22.20;1.00
3778;DHT22;1904;50.076;8.660;2022-09-09T16:42:50;22.00;1.00
3778;DHT22;1904;50.076;8.660;2022-09-09T16:45:26;21.80;1.00
3778;DHT22;1904;50.076;8.660;2022-09-09T16:51:19;21.30;1.00
3778;DHT22;1904;50.076;8.660;2022-09-09T16:53:51;20.90;1.00
3778;DHT22;1904;50.076;8.660;2022-09-09T16:56:22;20.70;1.00
3778;DHT22;1904;50.076;8.660;2022-09-09T16:58:58;20.60;1.00
3778;DHT22;1904;50.076;8.660;2022-09-09T17:01:25;20.50;1.00
3778;DHT22;1904;50.076;8.660;2022-09-09T17:04:00;20.40;1.00
3778;DHT22;1904;50.076;8.660;2022-09-09T17:07:01;20.20;1.00
3778;DHT22;1904;50.076;8.660;2022-09-09T17:09:32;20.20;1.00
3778;DHT22;1904;50.076;8.660;2022-09-09T17:12:19;20.10;1.00
3778;DHT22;1904;50.076;8.660;2022-09-09T17:15:13;20.10;1.00
3778;DHT22;1904;50.076;8.660;2022-09-09T17:17:44;20.00;1.00
3778;DHT22;1904;50.076;8.660;2022-09-09T17:20:34;19.80;1.00
3778;DHT22;1904;50.076;8.660;2022-09-09T17:23:02;19.80;1.00
3778;DHT22;1904;50.076;8.660;2022-09-09T17:25:44;19.70;1.00
3778;DHT22;1904;50.076;8.660;2022-09-09T17:28:31;19.60;1.00
3778;DHT22;1904;50.076;8.660;2022-09-09T17:31:02;19.50;1.00
3778;DHT22;1904;50.076;8.660;2022-09-09T17:33:34;19.50;1.00
3778;DHT22;1904;50.076;8.660;2022-09-09T17:36:15;19.30;1.00
3778;DHT22;1904;50.076;8.660;2022-09-09T17:38:42;19.20;1.00
3778;DHT22;1904;50.076;8.660;2022-09-09T17:41:14;19.10;1.00
3778;DHT22;1904;50.076;8.660;2022-09-09T17:43:40;19.00;1.00
3778;DHT22;1904;50.076;8.660;2022-09-09T17:46:19;18.80;1.00
3778;DHT22;1904;50.076;8.660;2022-09-09T17:48:47;18.80;1.00
3778;DHT22;1904;50.076;8.660;2022-09-09T17:51:16;18.70;1.00
3778;DHT22;1904;50.076;8.660;2022-09-09T17:53:50;18.70;1.00
3778;DHT22;1904;50.076;8.660;2022-09-09T17:56:18;18.70;1.00
3778;DHT22;1904;50.076;8.660;2022-09-09T17:58:49;18.70;1.00
3778;DHT22;1904;50.076;8.660;2022-09-09T18:01:25;18.60;1.00
3778;DHT22;1904;50.076;8.660;2022-09-09T18:03:57;18.50;1.00
3778;DHT22;1904;50.076;8.660;2022-09-09T18:06:28;18.50;1.00
3778;DHT22;1904;50.076;8.660;2022-09-09T18:08:58;18.40;1.00
3778;DHT22;1904;50.076;8.660;2022-09-09T18:11:28;18.40;1.00
3778;DHT22;1904;50.076;8.660;2022-09-09T18:13:58;18.30;1.00
3778;DHT22;1904;50.076;8.660;2022-09-09T18:16:33;18.20;1.00
3778;DHT22;1904;50.076;8.660;2022-09-09T18:22:20;18.10;1.00
3778;DHT22;1904;50.076;8.660;2022-09-09T18:24:56;17.90;1.00
3778;DHT22;1904;50.076;8.660;2022-09-09T18:27:26;17.90;1.00
3778;DHT22;1904;50.076;8.660;2022-09-09T18:30:25;17.90;1.00
3778;DHT22;1904;50.076;8.660;2022-09-09T18:32:56;17.80;1.00
3778;DHT22;1904;50.076;8.660;2022-09-09T18:35:22;17.80;1.00
3778;DHT22;1904;50.076;8.660;2022-09-09T18:43:52;17.70;1.00
3778;DHT22;1904;50.076;8.660;2022-09-09T18:46:20;17.70;1.00
3778;DHT22;1904;50.076;8.660;2022-09-09T18:48:50;17.60;1.00
3778;DHT22;1904;50.076;8.660;2022-09-09T18:51:20;17.60;1.00
3778;DHT22;1904;50.076;8.660;2022-09-09T18:54:02;17.50;1.00
3778;DHT22;1904;50.076;8.660;2022-09-09T18:56:49;17.40;1.00
3778;DHT22;1904;50.076;8.660;2022-09-09T18:59:18;17.40;1.00
3778;DHT22;1904;50.076;8.660;2022-09-09T19:01:51;17.40;1.00
3778;DHT22;1904;50.076;8.660;2022-09-09T19:04:21;17.40;1.00
3778;DHT22;1904;50.076;8.660;2022-09-09T19:06:50;17.30;1.00
3778;DHT22;1904;50.076;8.660;2022-09-09T19:09:29;17.30;1.00
3778;DHT22;1904;50.076;8.660;2022-09-09T19:11:56;17.30;1.00
3778;DHT22;1904;50.076;8.660;2022-09-09T19:14:26;17.20;1.00
3778;DHT22;1904;50.076;8.660;2022-09-09T19:17:08;17.20;1.00
3778;DHT22;1904;50.076;8.660;2022-09-09T19:19:38;17.10;1.00
3778;DHT22;1904;50.076;8.660;2022-09-09T19:22:20;16.90;1.00
3778;DHT22;1904;50.076;8.660;2022-09-09T19:24:50;16.90;1.00
3778;DHT22;1904;50.076;8.660;2022-09-09T19:30:26;16.90;1.00
3778;DHT22;1904;50.076;8.660;2022-09-09T19:32:56;16.80;1.00
3778;DHT22;1904;50.076;8.660;2022-09-09T19:35:23;16.80;1.00
3778;DHT22;1904;50.076;8.660;2022-09-09T19:38:07;16.80;1.00
3778;DHT22;1904;50.076;8.660;2022-09-09T19:40:55;16.80;1.00
3778;DHT22;1904;50.076;8.660;2022-09-09T19:43:23;16.80;1.00
3778;DHT22;1904;50.076;8.660;2022-09-09T19:45:56;16.80;1.00
3778;DHT22;1904;50.076;8.660;2022-09-09T19:48:24;16.70;1.00
3778;DHT22;1904;50.076;8.660;2022-09-09T19:50:52;16.70;1.00
3778;DHT22;1904;50.076;8.660;2022-09-09T19:53:44;16.70;1.00
3778;DHT22;1904;50.076;8.660;2022-09-09T19:56:27;16.70;1.00
3778;DHT22;1904;50.076;8.660;2022-09-09T19:58:56;16.70;1.00
3778;DHT22;1904;50.076;8.660;2022-09-09T20:01:30;16.70;1.00
3778;DHT22;1904;50.076;8.660;2022-09-09T20:04:25;16.70;1.00
3778;DHT22;1904;50.076;8.660;2022-09-09T20:07:13;16.70;1.00
3778;DHT22;1904;50.076;8.660;2022-09-09T20:09:56;16.60;1.00
3778;DHT22;1904;50.076;8.660;2022-09-09T20:12:55;16.60;1.00
3778;DHT22;1904;50.076;8.660;2022-09-09T20:15:38;16.50;1.00
3778;DHT22;1904;50.076;8.660;2022-09-09T20:18:08;16.50;1.00
3778;DHT22;1904;50.076;8.660;2022-09-09T20:24:05;16.40;1.00
3778;DHT22;1904;50.076;8.660;2022-09-09T20:26:38;16.40;1.00
3778;DHT22;1904;50.076;8.660;2022-09-09T20:29:06;16.30;1.00
3778;DHT22;1904;50.076;8.660;2022-09-09T20:31:34;16.20;1.00
3778;DHT22;1904;50.076;8.660;2022-09-09T20:34:02;16.20;1.00
3778;DHT22;1904;50.076;8.660;2022-09-09T20:36:33;16.20;1.00
3778;DHT22;1904;50.076;8.660;2022-09-09T20:39:05;16.20;1.00
3778;DHT22;1904;50.076;8.660;2022-09-09T20:41:33;16.20;1.00
3778;DHT22;1904;50.076;8.660;2022-09-09T20:44:07;16.20;1.00
3778;DHT22;1904;50.076;8.660;2022-09-09T20:46:38;16.20;1.00
3778;DHT22;1904;50.076;8.660;2022-09-09T20:49:05;16.10;1.00
3778;DHT22;1904;50.076;8.660;2022-09-09T20:51:33;16.10;1.00
3778;DHT22;1904;50.076;8.660;2022-09-09T20:54:04;16.10;1.00
3778;DHT22;1904;50.076;8.660;2022-09-09T20:56:39;16.10;1.00
3778;DHT22;1904;50.076;8.660;2022-09-09T20:59:17;16.10;1.00
3778;DHT22;1904;50.076;8.660;2022-09-09T21:01:50;16.10;1.00
3778;DHT22;1904;50.076;8.660;2022-09-09T21:04:26;16.10;1.00
3778;DHT22;1904;50.076;8.660;2022-09-09T21:06:56;16.00;1.00
3778;DHT22;1904;50.076;8.660;2022-09-09T21:09:32;15.90;1.00
3778;DHT22;1904;50.076;8.660;2022-09-09T21:12:19;15.90;1.00
3778;DHT22;1904;50.076;8.660;2022-09-09T21:14:56;15.80;1.00
3778;DHT22;1904;50.076;8.660;2022-09-09T21:17:26;15.80;1.00